Time;durP1;ratioP1;P1;durP2;ratioP2;P2;SDS_P1;SDS_P2;PMS_P1;PMS_P2;Temp;Humidity;BMP_temperature;BMP_pressure;BME280_temperature;BME280_humidity;BME280_pressure;Samples;Min_cycle;Max_cycle;Signal;HPM_P1;HPM_P2
2023/09/01 00:01:15;;;;;;;5.80;3.53;;;;;;;;;;5038864;28;20211;-87
2023/09/01 00:04:09;;;;;;;5.87;3.83;;;;;;;;;;5012938;28;20223;-87
2023/09/01 00:06:35;;;;;;;4.53;3.80;;;;;;;;;;5023548;28;20334;-82
2023/09/01 00:09:04;;;;;;;4.00;3.60;;;;;;;;;;5023164;28;20234;-87
2023/09/01 00:11:32;;;;;;;4.17;3.87;;;;;;;;;;5019975;28;20226;-87
2023/09/01 00:13:57;;;;;;;5.23;4.17;;;;;;;;;;5018408;28;20242;-88
2023/09/01 00:16:22;;;;;;;4.30;3.90;;;;;;;;;;5021284;28;20237;-87
2023/09/01 00:18:53;;;;;;;5.00;4.63;;;;;;;;;;5034905;28;20234;-86
2023/09/01 00:21:21;;;;;;;4.87;4.40;;;;;;;;;;5019986;28;20247;-87
2023/09/01 00:23:46;;;;;;;4.77;4.10;;;;;;;;;;5036995;28;20596;-86
2023/09/01 00:26:12;;;;;;;5.63;4.70;;;;;;;;;;5020034;28;20227;-86
2023/09/01 00:28:39;;;;;;;6.17;5.10;;;;;;;;;;5017170;28;20229;-87
2023/09/01 00:31:07;;;;;;;4.90;4.40;;;;;;;;;;5033232;28;20222;-87
2023/09/01 00:33:37;;;;;;;6.00;4.30;;;;;;;;;;5021507;28;20214;-87
2023/09/01 00:36:06;;;;;;;4.70;4.17;;;;;;;;;;5036539;28;20222;-87
2023/09/01 00:38:34;;;;;;;5.77;4.37;;;;;;;;;;5032305;28;20238;-87
2023/09/01 00:40:59;;;;;;;5.13;4.60;;;;;;;;;;5022388;28;20587;-87
2023/09/01 00:43:25;;;;;;;4.90;4.50;;;;;;;;;;5018320;28;20218;-86
2023/09/01 00:45:53;;;;;;;5.17;4.67;;;;;;;;;;5016234;28;20211;-88
2023/09/01 00:48:18;;;;;;;5.43;5.03;;;;;;;;;;5021231;28;20241;-83
2023/09/01 00:50:49;;;;;;;12.43;5.33;;;;;;;;;;5042147;28;20280;-83
2023/09/01 00:53:20;;;;;;;5.80;5.30;;;;;;;;;;5020028;28;20218;-85
2023/09/01 00:55:49;;;;;;;5.30;4.80;;;;;;;;;;5039224;28;20280;-88
2023/09/01 00:58:18;;;;;;;6.27;5.73;;;;;;;;;;5042262;28;20600;-87
2023/09/01 01:00:43;;;;;;;7.47;5.33;;;;;;;;;;5011131;28;20543;-88
2023/09/01 01:03:10;;;;;;;7.10;5.20;;;;;;;;;;5025350;28;20215;-85
2023/09/01 01:05:44;;;;;;;6.27;5.40;;;;;;;;;;5027823;28;20241;-87
2023/09/01 01:08:41;;;;;;;5.87;4.80;;;;;;;;;;5040356;28;20297;-88
2023/09/01 01:11:12;;;;;;;6.77;4.77;;;;;;;;;;5025525;28;20224;-87
2023/09/01 01:13:40;;;;;;;5.07;4.67;;;;;;;;;;5039261;28;20229;-87
2023/09/01 01:16:05;;;;;;;6.77;6.17;;;;;;;;;;5038435;28;20237;-87
2023/09/01 01:18:32;;;;;;;7.87;5.87;;;;;;;;;;5009552;28;20645;-86
2023/09/01 01:21:11;;;;;;;7.90;6.80;;;;;;;;;;5026460;28;20723;-86
2023/09/01 01:23:37;;;;;;;6.90;6.30;;;;;;;;;;5020061;28;20238;-85
2023/09/01 01:26:05;;;;;;;8.23;7.33;;;;;;;;;;5022651;28;20270;-86
2023/09/01 01:28:30;;;;;;;11.50;7.00;;;;;;;;;;5022367;28;20230;-85
2023/09/01 01:30:59;;;;;;;9.03;8.33;;;;;;;;;;5021837;28;20237;-82
2023/09/01 01:33:30;;;;;;;8.97;8.10;;;;;;;;;;5007405;28;20222;-86
2023/09/01 01:36:12;;;;;;;11.33;10.10;;;;;;;;;;5050178;28;20241;-85
2023/09/01 01:38:39;;;;;;;10.97;9.90;;;;;;;;;;5027699;28;20230;-85
2023/09/01 01:41:10;;;;;;;11.50;10.50;;;;;;;;;;4993583;28;20207;-85
2023/09/01 01:43:35;;;;;;;12.37;11.27;;;;;;;;;;5035957;28;20226;-85
2023/09/01 01:46:01;;;;;;;12.67;11.63;;;;;;;;;;5003431;28;20234;-84
2023/09/01 01:48:29;;;;;;;13.10;11.80;;;;;;;;;;5033245;28;20223;-84
2023/09/01 01:50:57;;;;;;;14.53;13.37;;;;;;;;;;5005543;28;20244;-86
2023/09/01 01:53:27;;;;;;;14.57;13.07;;;;;;;;;;5003789;28;20222;-87
2023/09/01 01:55:53;;;;;;;15.67;13.67;;;;;;;;;;5005034;28;20275;-85
2023/09/01 01:58:21;;;;;;;14.33;12.97;;;;;;;;;;5020878;28;20619;-85
2023/09/01 02:00:49;;;;;;;14.20;12.90;;;;;;;;;;5019974;28;20705;-86
2023/09/01 02:03:22;;;;;;;12.93;11.87;;;;;;;;;;5036709;28;20222;-88
2023/09/01 02:05:47;;;;;;;14.63;11.60;;;;;;;;;;5010119;28;20318;-87
2023/09/01 02:08:15;;;;;;;12.83;11.63;;;;;;;;;;5034139;28;20663;-86
2023/09/01 02:10:41;;;;;;;14.13;12.90;;;;;;;;;;5031953;28;20222;-84
2023/09/01 02:13:11;;;;;;;12.80;11.70;;;;;;;;;;5015105;28;20215;-86
2023/09/01 02:15:37;;;;;;;14.20;13.03;;;;;;;;;;5013453;28;20314;-84
2023/09/01 02:18:08;;;;;;;15.03;13.83;;;;;;;;;;5035632;28;20227;-86
2023/09/01 02:20:37;;;;;;;14.50;13.00;;;;;;;;;;5034864;28;20219;-84
2023/09/01 02:23:05;;;;;;;12.03;11.00;;;;;;;;;;5002429;28;20233;-85
2023/09/01 02:25:37;;;;;;;12.73;11.73;;;;;;;;;;5014339;28;20304;-84
2023/09/01 02:28:04;;;;;;;14.30;11.07;;;;;;;;;;5019177;28;20306;-87
2023/09/01 02:30:30;;;;;;;12.57;11.23;;;;;;;;;;5020587;28;20231;-86
2023/09/01 02:32:56;;;;;;;11.33;10.40;;;;;;;;;;5033370;28;20219;-86
2023/09/01 02:35:21;;;;;;;13.10;11.97;;;;;;;;;;5004292;28;20218;-86
2023/09/01 02:37:49;;;;;;;12.90;11.57;;;;;;;;;;5003558;28;20235;-88
2023/09/01 02:40:22;;;;;;;18.87;14.10;;;;;;;;;;5027696;28;21068;-86
2023/09/01 02:42:50;;;;;;;14.93;13.43;;;;;;;;;;5003886;28;20241;-87
2023/09/01 02:45:15;;;;;;;36.27;16.07;;;;;;;;;;5034212;28;20215;-86
2023/09/01 02:47:43;;;;;;;20.90;16.13;;;;;;;;;;5006602;28;20233;-85
2023/09/01 02:50:11;;;;;;;22.97;16.17;;;;;;;;;;5035138;28;20252;-85
2023/09/01 02:52:36;;;;;;;29.87;18.17;;;;;;;;;;5019700;28;20223;-86
2023/09/01 02:55:03;;;;;;;28.57;18.50;;;;;;;;;;5004805;28;20979;-85
2023/09/01 02:57:28;;;;;;;21.80;16.97;;;;;;;;;;5007138;28;20247;-86
2023/09/01 02:59:54;;;;;;;19.40;17.63;;;;;;;;;;5018596;28;20219;-87
2023/09/01 03:02:23;;;;;;;19.43;17.53;;;;;;;;;;5031274;28;20282;-87
2023/09/01 03:04:56;;;;;;;20.77;18.27;;;;;;;;;;5020387;28;20285;-87
2023/09/01 03:07:27;;;;;;;20.90;19.00;;;;;;;;;;5004931;28;20215;-88
2023/09/01 03:09:55;;;;;;;21.03;19.03;;;;;;;;;;5037243;28;20227;-87
2023/09/01 03:12:23;;;;;;;21.03;18.93;;;;;;;;;;5022303;28;20211;-88
2023/09/01 03:14:48;;;;;;;22.30;20.40;;;;;;;;;;5041338;28;20211;-87
2023/09/01 03:17:14;;;;;;;23.20;21.27;;;;;;;;;;5026978;28;20244;-87
2023/09/01 03:19:39;;;;;;;23.63;21.63;;;;;;;;;;5045347;28;20229;-86
2023/09/01 03:22:07;;;;;;;24.10;22.10;;;;;;;;;;5031808;28;20211;-88
2023/09/01 03:24:33;;;;;;;23.77;21.63;;;;;;;;;;5020228;28;20229;-86
2023/09/01 03:27:00;;;;;;;24.27;22.17;;;;;;;;;;5042179;28;20223;-84
2023/09/01 03:29:26;;;;;;;24.43;22.37;;;;;;;;;;5028608;28;20210;-84
2023/09/01 03:31:53;;;;;;;26.87;24.33;;;;;;;;;;5047666;28;20270;-83
2023/09/01 03:34:21;;;;;;;26.13;23.57;;;;;;;;;;5044418;28;20214;-83
2023/09/01 03:36:46;;;;;;;27.83;25.27;;;;;;;;;;5030680;28;20242;-83
2023/09/01 03:39:15;;;;;;;27.77;25.37;;;;;;;;;;5016869;28;20285;-83
2023/09/01 03:41:45;;;;;;;29.70;27.00;;;;;;;;;;5063448;28;21466;-84
2023/09/01 03:44:13;;;;;;;30.40;27.47;;;;;;;;;;5062526;28;20199;-83
2023/09/01 03:46:41;;;;;;;31.83;28.57;;;;;;;;;;5049153;28;20218;-84
2023/09/01 03:49:10;;;;;;;31.70;28.10;;;;;;;;;;5042312;28;20270;-85
2023/09/01 03:51:35;;;;;;;31.70;28.73;;;;;;;;;;5044723;28;20279;-85
2023/09/01 03:54:01;;;;;;;160.07;30.40;;;;;;;;;;5037061;28;20245;-84
2023/09/01 03:56:28;;;;;;;59.37;30.57;;;;;;;;;;5029490;28;20455;-84
2023/09/01 03:58:57;;;;;;;173.17;33.53;;;;;;;;;;5077760;28;20215;-79
2023/09/01 04:05:10;;;;;;;139.03;32.13;;;;;;;;;;5078192;28;20226;-80
2023/09/01 04:07:36;;;;;;;76.33;30.33;;;;;;;;;;5030650;28;20230;-80
2023/09/01 04:10:04;;;;;;;91.03;31.67;;;;;;;;;;5046761;28;20222;-80
2023/09/01 04:12:30;;;;;;;91.93;30.60;;;;;;;;;;5065557;28;20233;-81
2023/09/01 04:14:56;;;;;;;123.70;32.37;;;;;;;;;;5050411;28;20218;-79
2023/09/01 04:17:21;;;;;;;85.23;32.27;;;;;;;;;;5059234;28;20223;-80
2023/09/01 04:19:47;;;;;;;90.30;33.27;;;;;;;;;;5033519;28;20237;-80
2023/09/01 04:22:14;;;;;;;59.13;31.50;;;;;;;;;;5031829;28;20210;-79
2023/09/01 04:24:40;;;;;;;53.03;34.03;;;;;;;;;;5061981;28;20211;-79
2023/09/01 04:27:08;;;;;;;43.50;33.67;;;;;;;;;;5048746;28;20300;-80
2023/09/01 04:29:35;;;;;;;46.00;33.83;;;;;;;;;;5061799;28;20229;-79
2023/09/01 04:32:02;;;;;;;37.37;33.87;;;;;;;;;;5041267;28;20636;-79
2023/09/01 04:34:28;;;;;;;40.73;36.10;;;;;;;;;;5056442;28;20224;-79
2023/09/01 04:36:54;;;;;;;52.47;36.77;;;;;;;;;;5061764;28;20230;-79
2023/09/01 04:39:19;;;;;;;51.00;35.20;;;;;;;;;;5044488;28;20215;-79
2023/09/01 04:41:45;;;;;;;41.13;36.93;;;;;;;;;;5058784;28;20280;-78
2023/09/01 04:44:12;;;;;;;42.03;37.33;;;;;;;;;;5056901;28;20219;-80
2023/09/01 04:46:40;;;;;;;40.20;36.70;;;;;;;;;;5045877;28;20251;-79
2023/09/01 04:49:06;;;;;;;42.77;38.83;;;;;;;;;;5061173;28;20225;-80
2023/09/01 04:51:35;;;;;;;44.33;39.73;;;;;;;;;;5027029;28;20246;-78
2023/09/01 04:54:03;;;;;;;44.00;39.50;;;;;;;;;;5026118;28;20215;-80
2023/09/01 04:56:32;;;;;;;53.07;41.17;;;;;;;;;;5075294;28;20235;-79
2023/09/01 04:59:00;;;;;;;48.00;39.17;;;;;;;;;;5055300;28;20224;-81
2023/09/01 05:01:28;;;;;;;47.57;41.30;;;;;;;;;;5023440;28;20222;-79
2023/09/01 05:03:53;;;;;;;53.27;39.67;;;;;;;;;;5049865;28;20214;-80
2023/09/01 05:06:19;;;;;;;51.03;41.73;;;;;;;;;;5040309;28;20268;-79
2023/09/01 05:08:48;;;;;;;53.73;39.70;;;;;;;;;;5042036;28;20237;-79
2023/09/01 05:11:13;;;;;;;95.83;41.07;;;;;;;;;;5039932;28;20310;-79
2023/09/01 05:13:39;;;;;;;60.90;39.93;;;;;;;;;;5038716;28;20226;-80
2023/09/01 05:16:09;;;;;;;83.67;39.77;;;;;;;;;;5062755;28;20222;-80
2023/09/01 05:18:35;;;;;;;56.00;38.37;;;;;;;;;;5009961;28;20241;-79
2023/09/01 05:21:03;;;;;;;206.63;39.60;;;;;;;;;;5056872;28;20223;-79
2023/09/01 05:23:32;;;;;;;118.23;37.80;;;;;;;;;;5030101;28;20222;-79
2023/09/01 05:26:01;;;;;;;147.53;37.40;;;;;;;;;;5064680;28;20260;-77
2023/09/01 05:28:27;;;;;;;231.50;40.17;;;;;;;;;;5023628;28;20306;-79
2023/09/01 05:30:55;;;;;;;122.83;37.20;;;;;;;;;;5042991;28;20261;-79
2023/09/01 05:33:26;;;;;;;126.07;36.83;;;;;;;;;;5035511;28;20218;-79
2023/09/01 05:35:52;;;;;;;77.73;35.67;;;;;;;;;;5021683;28;20223;-79
2023/09/01 05:38:17;;;;;;;103.63;35.90;;;;;;;;;;5038429;28;20220;-79
2023/09/01 05:40:55;;;;;;;104.37;36.37;;;;;;;;;;5023237;28;20223;-79
2023/09/01 05:43:21;;;;;;;64.23;34.43;;;;;;;;;;5023154;28;20222;-78
2023/09/01 05:45:49;;;;;;;73.73;35.37;;;;;;;;;;5053136;28;20265;-79
2023/09/01 05:48:14;;;;;;;97.20;36.60;;;;;;;;;;5038258;28;20268;-79
2023/09/01 05:50:43;;;;;;;88.20;36.10;;;;;;;;;;5039501;28;20634;-79
2023/09/01 05:53:10;;;;;;;55.87;35.57;;;;;;;;;;5042394;28;20924;-80
2023/09/01 05:55:38;;;;;;;61.00;35.30;;;;;;;;;;5060140;28;20703;-80
2023/09/01 05:58:06;;;;;;;120.80;36.20;;;;;;;;;;5000332;28;20238;-80
2023/09/01 06:00:31;;;;;;;55.73;34.60;;;;;;;;;;5038858;28;20222;-79
2023/09/01 06:02:58;;;;;;;79.73;35.50;;;;;;;;;;5041699;28;20222;-79
2023/09/01 06:05:25;;;;;;;75.80;34.97;;;;;;;;;;5010936;28;20288;-79
2023/09/01 06:07:51;;;;;;;68.40;35.60;;;;;;;;;;5007399;28;20223;-81
2023/09/01 06:10:21;;;;;;;81.80;36.47;;;;;;;;;;5054648;28;20230;-79
2023/09/01 06:12:49;;;;;;;56.20;36.37;;;;;;;;;;5036499;28;20250;-79
2023/09/01 06:15:18;;;;;;;63.17;36.93;;;;;;;;;;5054694;28;20227;-79
2023/09/01 06:17:45;;;;;;;44.80;37.70;;;;;;;;;;5020720;28;20238;-78
2023/09/01 06:20:11;;;;;;;51.57;38.17;;;;;;;;;;5036137;28;20249;-79
2023/09/01 06:22:37;;;;;;;50.10;37.27;;;;;;;;;;5070336;28;20231;-79
2023/09/01 06:25:05;;;;;;;58.67;36.47;;;;;;;;;;5021872;28;20240;-78
2023/09/01 06:27:37;;;;;;;43.33;36.00;;;;;;;;;;5029950;28;20242;-80
2023/09/01 06:30:05;;;;;;;41.93;37.23;;;;;;;;;;5052125;28;20315;-79
2023/09/01 06:32:32;;;;;;;41.33;36.70;;;;;;;;;;5035161;28;20226;-79
2023/09/01 06:34:57;;;;;;;40.57;36.10;;;;;;;;;;5024207;28;20226;-80
2023/09/01 06:37:23;;;;;;;45.73;36.60;;;;;;;;;;5049395;28;20237;-79
2023/09/01 06:39:48;;;;;;;44.23;37.63;;;;;;;;;;5037099;28;20235;-80
2023/09/01 06:42:16;;;;;;;42.47;38.00;;;;;;;;;;5021278;28;20215;-80
2023/09/01 06:44:42;;;;;;;42.47;38.37;;;;;;;;;;5024710;28;20207;-80
2023/09/01 06:47:07;;;;;;;42.20;38.07;;;;;;;;;;5053225;28;20244;-80
2023/09/01 06:49:33;;;;;;;39.87;36.07;;;;;;;;;;5026353;28;20219;-79
2023/09/01 06:51:58;;;;;;;38.07;34.63;;;;;;;;;;5024659;28;20210;-79
2023/09/01 06:54:24;;;;;;;38.20;34.60;;;;;;;;;;5023816;28;20255;-79
2023/09/01 06:56:57;;;;;;;39.70;36.13;;;;;;;;;;5044547;28;20728;-79
2023/09/01 06:59:27;;;;;;;36.80;33.47;;;;;;;;;;5057599;28;20301;-78
2023/09/01 07:01:53;;;;;;;36.33;33.23;;;;;;;;;;5058189;28;20222;-79
2023/09/01 07:04:19;;;;;;;37.20;33.87;;;;;;;;;;5036101;28;20848;-79
2023/09/01 07:06:46;;;;;;;36.27;33.10;;;;;;;;;;5040963;28;20223;-80
2023/09/01 07:09:15;;;;;;;38.30;34.87;;;;;;;;;;5037344;28;20229;-80
2023/09/01 07:11:43;;;;;;;37.30;33.93;;;;;;;;;;5058621;28;20234;-79
2023/09/01 07:14:11;;;;;;;37.10;33.90;;;;;;;;;;5056864;28;20282;-79
2023/09/01 07:16:36;;;;;;;36.47;33.20;;;;;;;;;;5028348;28;20222;-79
2023/09/01 07:19:02;;;;;;;38.57;35.17;;;;;;;;;;5041536;28;20231;-79
2023/09/01 07:21:27;;;;;;;35.93;32.83;;;;;;;;;;5017580;28;20226;-80
2023/09/01 07:23:52;;;;;;;38.10;34.63;;;;;;;;;;5040284;28;20218;-79
2023/09/01 07:26:21;;;;;;;35.73;32.37;;;;;;;;;;5042442;28;21057;-79
2023/09/01 07:28:46;;;;;;;37.80;34.13;;;;;;;;;;5064894;28;20306;-81
2023/09/01 07:31:12;;;;;;;39.27;35.67;;;;;;;;;;5049402;28;20228;-79
2023/09/01 07:33:41;;;;;;;36.27;32.97;;;;;;;;;;5050384;28;20214;-80
2023/09/01 07:36:12;;;;;;;35.63;32.40;;;;;;;;;;5018468;28;20243;-79
2023/09/01 07:38:38;;;;;;;34.37;31.47;;;;;;;;;;5052754;28;20223;-80
2023/09/01 07:41:03;;;;;;;34.43;31.50;;;;;;;;;;5034831;28;20214;-81
2023/09/01 07:43:32;;;;;;;29.93;27.43;;;;;;;;;;5050357;28;20256;-80
2023/09/01 07:46:00;;;;;;;32.47;29.63;;;;;;;;;;5036564;28;20226;-81
2023/09/01 07:48:26;;;;;;;29.30;26.80;;;;;;;;;;5049869;28;20234;-80
2023/09/01 07:50:51;;;;;;;28.67;26.10;;;;;;;;;;5047668;28;20203;-80
2023/09/01 07:53:17;;;;;;;28.53;26.03;;;;;;;;;;5029187;28;20673;-79
2023/09/01 07:55:45;;;;;;;25.60;23.23;;;;;;;;;;5030708;28;20240;-81
2023/09/01 07:58:14;;;;;;;26.52;24.20;;;;;;;;;;5081213;28;20222;-80
2023/09/01 08:00:42;;;;;;;23.60;21.58;;;;;;;;;;5044707;28;20219;-79
2023/09/01 08:03:10;;;;;;;24.17;22.00;;;;;;;;;;5050281;28;20310;-80
2023/09/01 08:05:39;;;;;;;21.97;19.97;;;;;;;;;;5042185;28;20226;-81
2023/09/01 08:08:07;;;;;;;19.85;18.08;;;;;;;;;;5045414;28;20218;-81
2023/09/01 08:10:33;;;;;;;17.30;15.80;;;;;;;;;;5045330;28;20219;-81
2023/09/01 08:12:58;;;;;;;15.80;14.25;;;;;;;;;;5061841;28;20237;-81
2023/09/01 08:15:27;;;;;;;14.18;12.98;;;;;;;;;;5050683;28;20231;-80
2023/09/01 08:17:53;;;;;;;12.10;11.02;;;;;;;;;;5064251;28;21035;-79
2023/09/01 08:20:18;;;;;;;11.52;10.63;;;;;;;;;;5047233;28;20246;-79
2023/09/01 08:22:44;;;;;;;10.38;9.32;;;;;;;;;;5081422;28;20219;-79
2023/09/01 08:25:11;;;;;;;9.43;8.07;;;;;;;;;;5060453;28;20215;-79
2023/09/01 08:27:37;;;;;;;7.75;7.05;;;;;;;;;;5059447;28;20283;-80
2023/09/01 08:30:03;;;;;;;7.95;7.25;;;;;;;;;;5081476;28;20225;-80
2023/09/01 08:32:32;;;;;;;7.10;6.20;;;;;;;;;;5063708;28;20215;-79
2023/09/01 08:34:58;;;;;;;7.28;6.55;;;;;;;;;;5066290;28;20230;-80
2023/09/01 08:37:41;;;;;;;5.88;5.30;;;;;;;;;;5047869;28;20223;-79
2023/09/01 08:40:12;;;;;;;5.63;4.78;;;;;;;;;;5049762;28;20211;-79
2023/09/01 08:42:47;;;;;;;6.15;4.93;;;;;;;;;;5044425;28;20272;-79
2023/09/01 08:45:16;;;;;;;7.32;4.10;;;;;;;;;;5035924;28;20229;-79
2023/09/01 08:47:46;;;;;;;4.30;3.92;;;;;;;;;;5054291;28;20226;-80
2023/09/01 08:50:18;;;;;;;4.07;3.67;;;;;;;;;;5024096;28;20822;-80
2023/09/01 08:52:50;;;;;;;5.90;3.70;;;;;;;;;;5067041;28;20220;-78
2023/09/01 08:55:16;;;;;;;6.50;3.28;;;;;;;;;;5084834;28;20222;-79
2023/09/01 08:57:42;;;;;;;3.80;3.30;;;;;;;;;;5050883;28;20235;-79
2023/09/01 09:00:08;;;;;;;3.45;2.90;;;;;;;;;;5066639;28;20226;-80
2023/09/01 09:02:43;;;;;;;5.47;3.47;;;;;;;;;;5084440;28;20324;-80
2023/09/01 09:05:13;;;;;;;3.70;3.40;;;;;;;;;;5065159;28;20230;-79
2023/09/01 09:07:40;;;;;;;3.08;2.72;;;;;;;;;;5058435;28;20238;-80
2023/09/01 09:10:06;;;;;;;4.13;2.60;;;;;;;;;;5016501;28;20237;-79
2023/09/01 09:12:41;;;;;;;5.88;2.60;;;;;;;;;;5084696;28;20234;-79
2023/09/01 09:15:07;;;;;;;2.60;2.40;;;;;;;;;;5066360;28;20237;-80
2023/09/01 09:17:46;;;;;;;4.22;2.58;;;;;;;;;;5049929;28;20909;-79
2023/09/01 09:20:18;;;;;;;3.75;2.30;;;;;;;;;;5051252;28;20237;-79
2023/09/01 09:22:49;;;;;;;2.80;1.48;;;;;;;;;;5045492;28;20222;-79
2023/09/01 09:25:33;;;;;;;3.33;1.45;;;;;;;;;;5084524;28;20298;-79
2023/09/01 09:28:19;;;;;;;2.70;1.40;;;;;;;;;;5035949;28;20226;-79
2023/09/01 09:30:51;;;;;;;2.25;1.42;;;;;;;;;;5049752;28;20291;-79
2023/09/01 09:33:29;;;;;;;3.90;1.63;;;;;;;;;;5028569;28;20222;-79
2023/09/01 09:35:55;;;;;;;3.15;1.50;;;;;;;;;;5045296;28;20226;-79
2023/09/01 09:38:21;;;;;;;2.47;1.30;;;;;;;;;;5046090;28;20233;-80
2023/09/01 09:40:56;;;;;;;3.15;1.50;;;;;;;;;;5028594;28;20219;-81
2023/09/01 09:43:22;;;;;;;3.28;1.23;;;;;;;;;;5029341;28;20230;-79
2023/09/01 09:45:50;;;;;;;2.05;1.35;;;;;;;;;;5013897;28;20207;-82
2023/09/01 09:48:17;;;;;;;2.97;1.35;;;;;;;;;;5056373;28;20256;-78
2023/09/01 09:50:43;;;;;;;1.83;1.48;;;;;;;;;;5055382;28;20309;-80
2023/09/01 09:53:12;;;;;;;4.38;1.30;;;;;;;;;;5008522;28;20882;-79
2023/09/01 09:55:47;;;;;;;2.95;1.67;;;;;;;;;;5025461;28;20257;-78
2023/09/01 09:58:12;;;;;;;4.43;1.30;;;;;;;;;;5024453;28;20222;-78
2023/09/01 10:01:02;;;;;;;3.72;1.70;;;;;;;;;;5036986;28;20225;-82
2023/09/01 10:03:31;;;;;;;1.73;1.38;;;;;;;;;;5034821;28;20234;-79
2023/09/01 10:06:02;;;;;;;4.40;1.38;;;;;;;;;;5039004;28;20320;-80
2023/09/01 10:08:31;;;;;;;2.65;1.50;;;;;;;;;;5052747;28;20241;-79
2023/09/01 10:10:57;;;;;;;2.90;1.50;;;;;;;;;;5053097;28;20257;-78
2023/09/01 10:13:23;;;;;;;1.88;1.55;;;;;;;;;;5033380;28;20218;-77
2023/09/01 10:15:49;;;;;;;2.65;1.63;;;;;;;;;;5036087;28;20226;-78
2023/09/01 10:18:16;;;;;;;2.35;1.30;;;;;;;;;;5037628;28;20222;-78
2023/09/01 10:20:44;;;;;;;2.10;1.48;;;;;;;;;;5034323;28;20246;-78
2023/09/01 10:23:10;;;;;;;2.75;1.48;;;;;;;;;;5046553;28;20248;-78
2023/09/01 10:25:36;;;;;;;3.35;1.60;;;;;;;;;;5044175;28;20279;-78
2023/09/01 10:28:14;;;;;;;1.48;1.25;;;;;;;;;;5053093;28;20238;-81
2023/09/01 10:30:44;;;;;;;2.08;1.20;;;;;;;;;;5058562;28;20233;-79
2023/09/01 10:33:15;;;;;;;1.77;1.08;;;;;;;;;;5060187;28;20233;-79
2023/09/01 10:35:51;;;;;;;2.20;1.20;;;;;;;;;;5057141;28;20235;-78
2023/09/01 10:38:18;;;;;;;3.80;1.55;;;;;;;;;;5045704;28;20234;-79
2023/09/01 10:40:50;;;;;;;2.45;1.48;;;;;;;;;;5026189;28;20229;-79
2023/09/01 10:43:41;;;;;;;15.98;3.60;;;;;;;;;;5044823;28;20709;-78
2023/09/01 10:46:16;;;;;;;2.72;1.70;;;;;;;;;;5060239;28;20227;-79
2023/09/01 10:48:59;;;;;;;2.05;1.45;;;;;;;;;;5075588;28;20248;-80
2023/09/01 10:51:28;;;;;;;9.43;1.65;;;;;;;;;;5075511;28;20230;-80
2023/09/01 10:54:02;;;;;;;3.65;1.38;;;;;;;;;;5027332;28;20211;-79
2023/09/01 10:56:33;;;;;;;3.78;1.50;;;;;;;;;;5038103;28;20222;-79
2023/09/01 10:58:58;;;;;;;2.13;1.33;;;;;;;;;;5072663;28;20234;-81
2023/09/01 11:01:30;;;;;;;2.55;1.65;;;;;;;;;;5027255;28;20226;-80
2023/09/01 11:04:16;;;;;;;2.78;1.73;;;;;;;;;;5069237;28;20605;-79
2023/09/01 11:07:00;;;;;;;2.58;1.70;;;;;;;;;;5043779;28;20237;-79
2023/09/01 11:09:32;;;;;;;2.85;2.28;;;;;;;;;;5082718;28;20226;-82
2023/09/01 11:11:58;;;;;;;3.25;2.00;;;;;;;;;;5087238;28;20226;-79
2023/09/01 11:14:24;;;;;;;2.33;1.92;;;;;;;;;;5038917;28;20218;-80
2023/09/01 11:16:49;;;;;;;3.78;2.20;;;;;;;;;;5055996;28;20222;-79
2023/09/01 11:19:17;;;;;;;9.13;2.45;;;;;;;;;;5087109;28;20790;-80
2023/09/01 11:21:45;;;;;;;4.35;2.90;;;;;;;;;;5044012;28;20386;-81
2023/09/01 11:24:10;;;;;;;4.47;2.45;;;;;;;;;;5030082;28;20253;-79
2023/09/01 11:26:41;;;;;;;2.97;2.10;;;;;;;;;;5061262;28;20222;-83
2023/09/01 11:29:08;;;;;;;3.90;2.33;;;;;;;;;;5038308;28;20233;-80
2023/09/01 11:31:38;;;;;;;6.85;3.03;;;;;;;;;;5044179;28;20242;-80
2023/09/01 11:34:03;;;;;;;2.38;1.90;;;;;;;;;;5052569;28;20356;-79
2023/09/01 11:36:29;;;;;;;4.38;2.13;;;;;;;;;;5044814;28;20222;-81
2023/09/01 11:38:54;;;;;;;2.90;1.83;;;;;;;;;;5042902;28;20226;-78
2023/09/01 11:41:20;;;;;;;4.57;2.10;;;;;;;;;;5034469;28;20223;-80
2023/09/01 11:43:48;;;;;;;3.67;2.03;;;;;;;;;;5026824;28;20720;-79
2023/09/01 11:46:13;;;;;;;4.03;1.77;;;;;;;;;;5011087;28;20218;-80
2023/09/01 11:48:39;;;;;;;4.47;2.00;;;;;;;;;;5078048;28;21064;-79
2023/09/01 11:51:10;;;;;;;7.95;3.20;;;;;;;;;;5039830;28;20249;-79
2023/09/01 11:53:40;;;;;;;5.28;2.15;;;;;;;;;;5052134;28;20748;-81
2023/09/01 11:56:22;;;;;;;2.40;1.70;;;;;;;;;;5050356;28;20341;-79
2023/09/01 11:58:48;;;;;;;3.17;1.83;;;;;;;;;;5019139;28;20230;-78
2023/09/01 12:01:18;;;;;;;2.55;1.75;;;;;;;;;;5018806;28;20217;-78
2023/09/01 12:03:47;;;;;;;4.70;1.90;;;;;;;;;;5038791;28;20301;-80
2023/09/01 12:06:16;;;;;;;3.78;1.80;;;;;;;;;;5066550;28;20227;-81
2023/09/01 12:08:42;;;;;;;3.15;1.88;;;;;;;;;;5037079;28;20280;-79
2023/09/01 12:11:08;;;;;;;1.73;1.63;;;;;;;;;;5022890;28;20235;-81
2023/09/01 12:13:34;;;;;;;3.25;2.00;;;;;;;;;;5054459;28;20226;-78
2023/09/01 12:16:04;;;;;;;3.75;2.10;;;;;;;;;;5035331;28;20219;-80
2023/09/01 12:18:34;;;;;;;3.95;1.98;;;;;;;;;;5020389;28;20266;-79
2023/09/01 12:21:03;;;;;;;3.33;1.98;;;;;;;;;;5020229;28;20241;-80
2023/09/01 12:23:30;;;;;;;2.53;2.03;;;;;;;;;;5025622;28;20215;-80
2023/09/01 12:25:56;;;;;;;2.80;2.00;;;;;;;;;;5020559;28;20229;-79
2023/09/01 12:28:26;;;;;;;3.20;2.10;;;;;;;;;;5035993;28;20227;-82
2023/09/01 12:30:52;;;;;;;3.47;2.05;;;;;;;;;;5019930;28;20308;-81
2023/09/01 12:33:20;;;;;;;3.72;2.17;;;;;;;;;;5017401;28;20230;-80
2023/09/01 12:35:48;;;;;;;3.88;2.30;;;;;;;;;;5037676;28;20750;-80
2023/09/01 12:38:16;;;;;;;3.38;2.00;;;;;;;;;;5016374;28;20288;-79
2023/09/01 12:40:42;;;;;;;4.93;2.03;;;;;;;;;;5052306;28;20258;-80
2023/09/01 12:43:08;;;;;;;3.75;2.20;;;;;;;;;;5036106;28;20249;-78
2023/09/01 12:45:33;;;;;;;4.70;2.30;;;;;;;;;;5031656;28;20230;-79
2023/09/01 12:48:02;;;;;;;5.93;2.10;;;;;;;;;;5018528;28;20222;-80
2023/09/01 12:50:30;;;;;;;3.72;2.08;;;;;;;;;;5033779;28;20226;-80
2023/09/01 12:52:56;;;;;;;2.80;2.03;;;;;;;;;;5017418;28;20223;-80
2023/09/01 12:55:26;;;;;;;5.15;2.10;;;;;;;;;;5033545;28;20218;-79
2023/09/01 12:57:55;;;;;;;3.65;1.90;;;;;;;;;;5066499;28;20225;-81
2023/09/01 13:00:22;;;;;;;3.83;2.00;;;;;;;;;;5018105;28;20195;-80
2023/09/01 13:02:53;;;;;;;4.30;2.50;;;;;;;;;;5049623;28;20738;-79
2023/09/01 13:05:21;;;;;;;2.15;1.75;;;;;;;;;;5023140;28;20215;-80
2023/09/01 13:07:51;;;;;;;3.35;2.22;;;;;;;;;;5049258;28;20219;-80
2023/09/01 13:10:23;;;;;;;4.25;2.10;;;;;;;;;;5050300;28;20618;-80
2023/09/01 13:12:48;;;;;;;5.03;2.15;;;;;;;;;;5017549;28;20709;-79
2023/09/01 13:15:14;;;;;;;4.57;2.08;;;;;;;;;;5033943;28;20217;-79
2023/09/01 13:17:43;;;;;;;3.53;2.35;;;;;;;;;;5033381;28;20218;-79
2023/09/01 13:20:09;;;;;;;6.13;2.28;;;;;;;;;;5031066;28;20672;-79
2023/09/01 13:22:37;;;;;;;2.45;2.20;;;;;;;;;;5020425;28;20334;-80
2023/09/01 13:25:06;;;;;;;3.83;2.00;;;;;;;;;;5034052;28;20251;-80
2023/09/01 13:27:34;;;;;;;2.92;1.98;;;;;;;;;;5065755;28;20714;-80
2023/09/01 13:29:59;;;;;;;4.13;2.05;;;;;;;;;;5051412;28;20203;-79
2023/09/01 13:32:27;;;;;;;2.78;2.25;;;;;;;;;;5025182;28;20250;-79
2023/09/01 13:34:52;;;;;;;3.22;2.20;;;;;;;;;;5040034;28;20584;-78
2023/09/01 13:37:20;;;;;;;5.80;1.95;;;;;;;;;;5034127;28;22181;-79
2023/09/01 13:39:55;;;;;;;4.22;2.45;;;;;;;;;;5050766;28;20217;-78
2023/09/01 13:42:22;;;;;;;4.15;1.88;;;;;;;;;;5035218;28;20214;-79
2023/09/01 13:44:51;;;;;;;3.08;1.98;;;;;;;;;;5066790;28;20219;-78
2023/09/01 13:47:16;;;;;;;4.93;2.28;;;;;;;;;;5032629;28;20229;-80
2023/09/01 13:49:42;;;;;;;2.53;1.80;;;;;;;;;;5032230;28;20195;-79
2023/09/01 13:52:08;;;;;;;3.67;2.10;;;;;;;;;;5022371;28;20347;-79
2023/09/01 13:54:36;;;;;;;3.15;1.83;;;;;;;;;;5033799;28;20199;-79
2023/09/01 13:57:02;;;;;;;3.10;1.98;;;;;;;;;;5016341;28;20225;-80
2023/09/01 13:59:27;;;;;;;3.65;2.30;;;;;;;;;;5032664;28;20960;-80
2023/09/01 14:01:53;;;;;;;3.42;2.00;;;;;;;;;;5049867;28;20256;-80
2023/09/01 14:04:18;;;;;;;4.07;2.45;;;;;;;;;;5041286;28;20256;-78
2023/09/01 14:06:52;;;;;;;2.75;2.20;;;;;;;;;;5032808;28;20298;-80
2023/09/01 14:09:20;;;;;;;4.18;2.45;;;;;;;;;;5050129;28;20243;-79
2023/09/01 14:11:46;;;;;;;6.88;2.53;;;;;;;;;;5014385;28;20227;-80
2023/09/01 14:14:11;;;;;;;3.70;2.25;;;;;;;;;;5037962;28;20210;-79
2023/09/01 14:16:39;;;;;;;3.63;2.13;;;;;;;;;;5040129;28;20261;-83
2023/09/01 14:19:05;;;;;;;5.13;2.35;;;;;;;;;;5053042;28;20253;-81
2023/09/01 14:21:31;;;;;;;3.88;2.17;;;;;;;;;;5054166;28;20214;-81
2023/09/01 14:23:59;;;;;;;3.80;1.88;;;;;;;;;;5056370;28;20731;-80
2023/09/01 14:26:27;;;;;;;3.05;1.80;;;;;;;;;;5021958;28;20223;-81
2023/09/01 14:28:52;;;;;;;2.42;1.90;;;;;;;;;;5019513;28;20211;-82
2023/09/01 14:31:24;;;;;;;5.90;2.28;;;;;;;;;;5021393;28;20218;-82
2023/09/01 14:33:49;;;;;;;6.97;2.15;;;;;;;;;;5039704;28;20210;-82
2023/09/01 14:36:18;;;;;;;2.90;2.15;;;;;;;;;;5047586;28;20222;-82
2023/09/01 14:38:46;;;;;;;4.43;2.78;;;;;;;;;;5018676;28;20656;-80
2023/09/01 14:41:16;;;;;;;4.40;2.35;;;;;;;;;;5051784;28;20206;-82